sensor_id;sensor_type;location;lat;lon;timestamp;temperature;humidity
43520;DHT22;46848;51.980;5.918;2024-01-07T00:01:56;3.90;86.90
43520;DHT22;46848;51.980;5.918;2024-01-07T00:04:21;3.90;86.90
43520;DHT22;46848;51.980;5.918;2024-01-07T00:06:47;3.90;86.90
43520;DHT22;46848;51.980;5.918;2024-01-07T00:09:13;3.90;87.00
43520;DHT22;46848;51.980;5.918;2024-01-07T00:11:39;3.90;87.10
43520;DHT22;46848;51.980;5.918;2024-01-07T00:14:05;3.80;87.20
43520;DHT22;46848;51.980;5.918;2024-01-07T00:16:30;3.80;87.30
43520;DHT22;46848;51.980;5.918;2024-01-07T00:18:56;3.90;87.40
43520;DHT22;46848;51.980;5.918;2024-01-07T00:21:21;3.90;87.30
43520;DHT22;46848;51.980;5.918;2024-01-07T00:23:47;4.00;87.10
43520;DHT22;46848;51.980;5.918;2024-01-07T00:26:12;4.10;87.20
43520;DHT22;46848;51.980;5.918;2024-01-07T00:28:38;4.10;87.00
43520;DHT22;46848;51.980;5.918;2024-01-07T00:31:03;4.00;86.90
43520;DHT22;46848;51.980;5.918;2024-01-07T00:33:31;4.10;87.00
43520;DHT22;46848;51.980;5.918;2024-01-07T00:35:56;4.10;87.00
43520;DHT22;46848;51.980;5.918;2024-01-07T00:38:22;4.10;87.00
43520;DHT22;46848;51.980;5.918;2024-01-07T00:40:48;4.10;87.00
43520;DHT22;46848;51.980;5.918;2024-01-07T00:43:13;4.10;87.00
43520;DHT22;46848;51.980;5.918;2024-01-07T00:45:39;4.10;87.10
43520;DHT22;46848;51.980;5.918;2024-01-07T00:48:05;4.10;87.20
43520;DHT22;46848;51.980;5.918;2024-01-07T00:50:31;4.00;87.10
43520;DHT22;46848;51.980;5.918;2024-01-07T00:52:56;4.00;87.20
43520;DHT22;46848;51.980;5.918;2024-01-07T00:55:22;4.00;87.20
43520;DHT22;46848;51.980;5.918;2024-01-07T00:57:49;4.00;87.30
43520;DHT22;46848;51.980;5.918;2024-01-07T01:00:15;3.90;87.30
43520;DHT22;46848;51.980;5.918;2024-01-07T01:02:41;3.90;87.50
43520;DHT22;46848;51.980;5.918;2024-01-07T01:05:06;3.90;87.40
43520;DHT22;46848;51.980;5.918;2024-01-07T01:07:32;3.90;87.30
43520;DHT22;46848;51.980;5.918;2024-01-07T01:09:58;3.80;87.30
43520;DHT22;46848;51.980;5.918;2024-01-07T01:12:24;3.80;87.30
43520;DHT22;46848;51.980;5.918;2024-01-07T01:14:49;3.80;88.00
43520;DHT22;46848;51.980;5.918;2024-01-07T01:17:15;3.80;87.40
43520;DHT22;46848;51.980;5.918;2024-01-07T01:19:40;3.80;87.30
43520;DHT22;46848;51.980;5.918;2024-01-07T01:22:06;3.80;87.30
43520;DHT22;46848;51.980;5.918;2024-01-07T01:24:31;3.80;87.90
43520;DHT22;46848;51.980;5.918;2024-01-07T01:26:57;3.80;87.30
43520;DHT22;46848;51.980;5.918;2024-01-07T01:29:23;3.70;87.00
43520;DHT22;46848;51.980;5.918;2024-01-07T01:31:49;3.70;87.20
43520;DHT22;46848;51.980;5.918;2024-01-07T01:34:14;3.60;87.40
43520;DHT22;46848;51.980;5.918;2024-01-07T01:36:40;3.70;87.50
43520;DHT22;46848;51.980;5.918;2024-01-07T01:39:05;3.70;87.40
43520;DHT22;46848;51.980;5.918;2024-01-07T01:41:32;3.70;87.20
43520;DHT22;46848;51.980;5.918;2024-01-07T01:44:01;3.70;87.30
43520;DHT22;46848;51.980;5.918;2024-01-07T01:46:28;3.60;87.40
43520;DHT22;46848;51.980;5.918;2024-01-07T01:48:55;3.70;87.40
43520;DHT22;46848;51.980;5.918;2024-01-07T01:51:21;3.70;87.40
43520;DHT22;46848;51.980;5.918;2024-01-07T01:53:47;3.70;87.20
43520;DHT22;46848;51.980;5.918;2024-01-07T01:56:17;3.70;87.30
43520;DHT22;46848;51.980;5.918;2024-01-07T01:58:44;3.70;87.40
43520;DHT22;46848;51.980;5.918;2024-01-07T02:01:09;3.60;87.40
43520;DHT22;46848;51.980;5.918;2024-01-07T02:03:35;3.60;87.60
43520;DHT22;46848;51.980;5.918;2024-01-07T02:06:01;3.60;87.80
43520;DHT22;46848;51.980;5.918;2024-01-07T02:08:26;3.50;88.10
43520;DHT22;46848;51.980;5.918;2024-01-07T02:10:52;3.50;88.20
43520;DHT22;46848;51.980;5.918;2024-01-07T02:13:18;3.40;88.40
43520;DHT22;46848;51.980;5.918;2024-01-07T02:15:44;3.40;88.60
43520;DHT22;46848;51.980;5.918;2024-01-07T02:18:09;3.50;88.80
43520;DHT22;46848;51.980;5.918;2024-01-07T02:20:35;3.40;89.00
43520;DHT22;46848;51.980;5.918;2024-01-07T02:23:02;3.30;89.40
43520;DHT22;46848;51.980;5.918;2024-01-07T02:25:27;3.30;89.60
43520;DHT22;46848;51.980;5.918;2024-01-07T02:27:53;3.30;89.70
43520;DHT22;46848;51.980;5.918;2024-01-07T02:30:18;3.30;89.90
43520;DHT22;46848;51.980;5.918;2024-01-07T02:32:44;3.20;90.00
43520;DHT22;46848;51.980;5.918;2024-01-07T02:35:09;3.20;90.00
43520;DHT22;46848;51.980;5.918;2024-01-07T02:37:35;3.20;90.00
43520;DHT22;46848;51.980;5.918;2024-01-07T02:40:01;3.20;90.00
43520;DHT22;46848;51.980;5.918;2024-01-07T02:42:26;3.30;90.00
43520;DHT22;46848;51.980;5.918;2024-01-07T02:44:52;3.30;89.80
43520;DHT22;46848;51.980;5.918;2024-01-07T02:47:17;3.30;89.80
43520;DHT22;46848;51.980;5.918;2024-01-07T02:49:43;3.30;89.70
43520;DHT22;46848;51.980;5.918;2024-01-07T02:52:09;3.40;89.50
43520;DHT22;46848;51.980;5.918;2024-01-07T02:54:34;3.40;89.30
43520;DHT22;46848;51.980;5.918;2024-01-07T02:57:00;3.30;89.10
43520;DHT22;46848;51.980;5.918;2024-01-07T02:59:25;3.30;89.00
43520;DHT22;46848;51.980;5.918;2024-01-07T03:01:51;3.40;89.00
43520;DHT22;46848;51.980;5.918;2024-01-07T03:04:16;3.40;88.90
43520;DHT22;46848;51.980;5.918;2024-01-07T03:06:42;3.40;88.80
43520;DHT22;46848;51.980;5.918;2024-01-07T03:09:08;3.50;88.90
43520;DHT22;46848;51.980;5.918;2024-01-07T03:11:39;3.50;88.80
43520;DHT22;46848;51.980;5.918;2024-01-07T03:14:05;3.50;88.60
43520;DHT22;46848;51.980;5.918;2024-01-07T03:16:31;3.60;88.50
43520;DHT22;46848;51.980;5.918;2024-01-07T03:18:56;3.60;88.50
43520;DHT22;46848;51.980;5.918;2024-01-07T03:21:23;3.60;88.40
43520;DHT22;46848;51.980;5.918;2024-01-07T03:23:50;3.60;88.20
43520;DHT22;46848;51.980;5.918;2024-01-07T03:26:17;3.60;88.10
43520;DHT22;46848;51.980;5.918;2024-01-07T03:28:43;3.60;87.80
43520;DHT22;46848;51.980;5.918;2024-01-07T03:31:12;3.60;87.60
43520;DHT22;46848;51.980;5.918;2024-01-07T03:33:39;3.50;87.80
43520;DHT22;46848;51.980;5.918;2024-01-07T03:36:11;3.50;87.80
43520;DHT22;46848;51.980;5.918;2024-01-07T03:38:38;3.50;87.80
43520;DHT22;46848;51.980;5.918;2024-01-07T03:41:04;3.50;87.70
43520;DHT22;46848;51.980;5.918;2024-01-07T03:43:30;3.40;87.70
43520;DHT22;46848;51.980;5.918;2024-01-07T03:45:56;3.40;87.80
43520;DHT22;46848;51.980;5.918;2024-01-07T03:48:21;3.40;87.80
43520;DHT22;46848;51.980;5.918;2024-01-07T03:50:47;3.40;87.60
43520;DHT22;46848;51.980;5.918;2024-01-07T03:53:13;3.40;87.60
43520;DHT22;46848;51.980;5.918;2024-01-07T03:55:39;3.40;87.60
43520;DHT22;46848;51.980;5.918;2024-01-07T03:58:05;3.30;87.30
43520;DHT22;46848;51.980;5.918;2024-01-07T04:00:31;3.30;87.00
43520;DHT22;46848;51.980;5.918;2024-01-07T04:02:57;3.20;87.40
43520;DHT22;46848;51.980;5.918;2024-01-07T04:05:22;3.30;87.50
43520;DHT22;46848;51.980;5.918;2024-01-07T04:07:48;3.30;87.50
43520;DHT22;46848;51.980;5.918;2024-01-07T04:10:16;3.20;87.50
43520;DHT22;46848;51.980;5.918;2024-01-07T04:12:42;3.20;87.70
43520;DHT22;46848;51.980;5.918;2024-01-07T04:15:08;3.20;87.80
43520;DHT22;46848;51.980;5.918;2024-01-07T04:17:33;3.30;87.80
43520;DHT22;46848;51.980;5.918;2024-01-07T04:19:59;3.30;87.70
43520;DHT22;46848;51.980;5.918;2024-01-07T04:22:24;3.30;87.50
43520;DHT22;46848;51.980;5.918;2024-01-07T04:24:50;3.20;87.60
43520;DHT22;46848;51.980;5.918;2024-01-07T04:27:16;3.20;87.60
43520;DHT22;46848;51.980;5.918;2024-01-07T04:29:41;3.20;87.30
43520;DHT22;46848;51.980;5.918;2024-01-07T04:32:07;3.10;87.40
43520;DHT22;46848;51.980;5.918;2024-01-07T04:34:32;3.10;87.60
43520;DHT22;46848;51.980;5.918;2024-01-07T04:36:58;3.10;87.50
43520;DHT22;46848;51.980;5.918;2024-01-07T04:39:23;3.10;87.60
43520;DHT22;46848;51.980;5.918;2024-01-07T04:41:49;3.00;87.40
43520;DHT22;46848;51.980;5.918;2024-01-07T04:44:14;3.00;87.60
43520;DHT22;46848;51.980;5.918;2024-01-07T04:46:40;3.00;87.60
43520;DHT22;46848;51.980;5.918;2024-01-07T04:49:06;3.00;87.60
43520;DHT22;46848;51.980;5.918;2024-01-07T04:51:32;3.00;87.40
43520;DHT22;46848;51.980;5.918;2024-01-07T04:53:58;3.00;87.10
43520;DHT22;46848;51.980;5.918;2024-01-07T04:56:24;3.00;87.30
43520;DHT22;46848;51.980;5.918;2024-01-07T04:58:49;3.00;87.40
43520;DHT22;46848;51.980;5.918;2024-01-07T05:01:15;3.00;87.30
43520;DHT22;46848;51.980;5.918;2024-01-07T05:03:40;3.00;87.20
43520;DHT22;46848;51.980;5.918;2024-01-07T05:06:08;3.10;87.20
43520;DHT22;46848;51.980;5.918;2024-01-07T05:08:35;3.10;87.00
43520;DHT22;46848;51.980;5.918;2024-01-07T05:11:01;3.10;86.80
43520;DHT22;46848;51.980;5.918;2024-01-07T05:13:26;3.10;86.80
43520;DHT22;46848;51.980;5.918;2024-01-07T05:15:52;3.10;86.80
43520;DHT22;46848;51.980;5.918;2024-01-07T05:18:24;3.10;86.90
43520;DHT22;46848;51.980;5.918;2024-01-07T05:20:50;3.10;86.60
43520;DHT22;46848;51.980;5.918;2024-01-07T05:23:16;3.00;86.40
43520;DHT22;46848;51.980;5.918;2024-01-07T05:25:45;3.00;86.50
43520;DHT22;46848;51.980;5.918;2024-01-07T05:28:11;3.10;86.30
43520;DHT22;46848;51.980;5.918;2024-01-07T05:30:38;3.00;86.50
43520;DHT22;46848;51.980;5.918;2024-01-07T05:33:04;3.00;86.30
43520;DHT22;46848;51.980;5.918;2024-01-07T05:35:30;3.10;86.50
43520;DHT22;46848;51.980;5.918;2024-01-07T05:37:56;3.00;86.10
43520;DHT22;46848;51.980;5.918;2024-01-07T05:40:21;2.90;85.90
43520;DHT22;46848;51.980;5.918;2024-01-07T05:42:47;2.90;86.00
43520;DHT22;46848;51.980;5.918;2024-01-07T05:45:13;2.90;86.00
43520;DHT22;46848;51.980;5.918;2024-01-07T05:47:38;2.90;86.30
43520;DHT22;46848;51.980;5.918;2024-01-07T05:50:06;2.90;86.10
43520;DHT22;46848;51.980;5.918;2024-01-07T05:52:32;2.90;85.80
43520;DHT22;46848;51.980;5.918;2024-01-07T05:54:57;2.90;86.10
43520;DHT22;46848;51.980;5.918;2024-01-07T05:57:23;2.90;86.10
43520;DHT22;46848;51.980;5.918;2024-01-07T05:59:48;2.90;86.10
43520;DHT22;46848;51.980;5.918;2024-01-07T06:02:15;2.90;86.00
43520;DHT22;46848;51.980;5.918;2024-01-07T06:04:42;2.90;86.00
43520;DHT22;46848;51.980;5.918;2024-01-07T06:07:08;3.00;85.90
43520;DHT22;46848;51.980;5.918;2024-01-07T06:09:34;3.00;86.00
43520;DHT22;46848;51.980;5.918;2024-01-07T06:11:59;2.90;85.70
43520;DHT22;46848;51.980;5.918;2024-01-07T06:14:25;2.90;86.00
43520;DHT22;46848;51.980;5.918;2024-01-07T06:16:50;2.90;86.00
43520;DHT22;46848;51.980;5.918;2024-01-07T06:19:20;2.90;86.00
43520;DHT22;46848;51.980;5.918;2024-01-07T06:21:45;2.90;85.80
43520;DHT22;46848;51.980;5.918;2024-01-07T06:24:11;2.80;85.70
43520;DHT22;46848;51.980;5.918;2024-01-07T06:26:37;2.80;85.50
43520;DHT22;46848;51.980;5.918;2024-01-07T06:29:02;2.80;85.70
43520;DHT22;46848;51.980;5.918;2024-01-07T06:31:28;2.70;85.70
43520;DHT22;46848;51.980;5.918;2024-01-07T06:33:54;2.70;85.80
43520;DHT22;46848;51.980;5.918;2024-01-07T06:36:23;2.70;85.90
43520;DHT22;46848;51.980;5.918;2024-01-07T06:38:49;2.70;85.90
43520;DHT22;46848;51.980;5.918;2024-01-07T06:41:14;2.70;86.00
43520;DHT22;46848;51.980;5.918;2024-01-07T06:43:40;2.80;85.60
43520;DHT22;46848;51.980;5.918;2024-01-07T06:46:06;2.70;85.80
43520;DHT22;46848;51.980;5.918;2024-01-07T06:48:32;2.70;85.80
43520;DHT22;46848;51.980;5.918;2024-01-07T06:50:58;2.80;85.90
43520;DHT22;46848;51.980;5.918;2024-01-07T06:53:23;2.80;85.80
43520;DHT22;46848;51.980;5.918;2024-01-07T06:55:49;2.80;85.50
43520;DHT22;46848;51.980;5.918;2024-01-07T06:58:15;2.70;85.00
43520;DHT22;46848;51.980;5.918;2024-01-07T07:00:40;2.60;85.30
43520;DHT22;46848;51.980;5.918;2024-01-07T07:03:08;2.70;85.70
43520;DHT22;46848;51.980;5.918;2024-01-07T07:05:33;2.70;85.70
43520;DHT22;46848;51.980;5.918;2024-01-07T07:07:59;2.70;85.30
43520;DHT22;46848;51.980;5.918;2024-01-07T07:10:24;2.70;85.10
43520;DHT22;46848;51.980;5.918;2024-01-07T07:12:50;2.70;85.20
43520;DHT22;46848;51.980;5.918;2024-01-07T07:15:16;2.70;85.10
43520;DHT22;46848;51.980;5.918;2024-01-07T07:17:42;2.70;85.00
43520;DHT22;46848;51.980;5.918;2024-01-07T07:20:08;2.70;84.70
43520;DHT22;46848;51.980;5.918;2024-01-07T07:22:34;2.70;84.60
43520;DHT22;46848;51.980;5.918;2024-01-07T07:25:00;2.70;84.70
43520;DHT22;46848;51.980;5.918;2024-01-07T07:27:25;2.70;84.40
43520;DHT22;46848;51.980;5.918;2024-01-07T07:29:51;2.70;84.60
43520;DHT22;46848;51.980;5.918;2024-01-07T07:32:17;2.70;84.60
43520;DHT22;46848;51.980;5.918;2024-01-07T07:34:43;2.70;84.40
43520;DHT22;46848;51.980;5.918;2024-01-07T07:37:08;2.60;84.20
43520;DHT22;46848;51.980;5.918;2024-01-07T07:39:34;2.50;84.60
43520;DHT22;46848;51.980;5.918;2024-01-07T07:42:00;2.50;84.70
43520;DHT22;46848;51.980;5.918;2024-01-07T07:44:25;2.60;84.70
43520;DHT22;46848;51.980;5.918;2024-01-07T07:46:51;2.60;84.40
43520;DHT22;46848;51.980;5.918;2024-01-07T07:49:16;2.60;84.40
43520;DHT22;46848;51.980;5.918;2024-01-07T07:51:43;2.50;84.40
43520;DHT22;46848;51.980;5.918;2024-01-07T07:54:09;2.50;84.40
43520;DHT22;46848;51.980;5.918;2024-01-07T07:56:34;2.50;83.90
43520;DHT22;46848;51.980;5.918;2024-01-07T07:59:04;2.40;83.70
43520;DHT22;46848;51.980;5.918;2024-01-07T08:01:29;2.30;83.70
43520;DHT22;46848;51.980;5.918;2024-01-07T08:03:55;2.30;84.10
43520;DHT22;46848;51.980;5.918;2024-01-07T08:06:21;2.30;84.30
43520;DHT22;46848;51.980;5.918;2024-01-07T08:08:47;2.30;84.50
43520;DHT22;46848;51.980;5.918;2024-01-07T08:11:12;2.30;84.40
43520;DHT22;46848;51.980;5.918;2024-01-07T08:13:38;2.30;84.30
43520;DHT22;46848;51.980;5.918;2024-01-07T08:16:04;2.40;84.30
43520;DHT22;46848;51.980;5.918;2024-01-07T08:18:31;2.30;84.10
43520;DHT22;46848;51.980;5.918;2024-01-07T08:20:56;2.30;83.50
43520;DHT22;46848;51.980;5.918;2024-01-07T08:23:23;2.20;83.90
43520;DHT22;46848;51.980;5.918;2024-01-07T08:25:49;2.30;84.10
43520;DHT22;46848;51.980;5.918;2024-01-07T08:28:16;2.30;84.10
43520;DHT22;46848;51.980;5.918;2024-01-07T08:30:42;2.30;84.30
43520;DHT22;46848;51.980;5.918;2024-01-07T08:33:07;2.30;84.20
43520;DHT22;46848;51.980;5.918;2024-01-07T08:35:33;2.30;84.30
43520;DHT22;46848;51.980;5.918;2024-01-07T08:37:58;2.30;84.00
43520;DHT22;46848;51.980;5.918;2024-01-07T08:40:24;2.30;83.50
43520;DHT22;46848;51.980;5.918;2024-01-07T08:42:50;2.30;83.40
43520;DHT22;46848;51.980;5.918;2024-01-07T08:45:15;2.20;83.00
43520;DHT22;46848;51.980;5.918;2024-01-07T08:47:41;2.20;83.40
43520;DHT22;46848;51.980;5.918;2024-01-07T08:50:06;2.20;83.40
43520;DHT22;46848;51.980;5.918;2024-01-07T08:52:33;2.20;83.50
43520;DHT22;46848;51.980;5.918;2024-01-07T08:55:01;2.10;83.10
43520;DHT22;46848;51.980;5.918;2024-01-07T08:57:27;2.10;82.90
43520;DHT22;46848;51.980;5.918;2024-01-07T08:59:53;2.00;83.00
43520;DHT22;46848;51.980;5.918;2024-01-07T09:02:18;1.90;83.30
43520;DHT22;46848;51.980;5.918;2024-01-07T09:04:44;1.90;83.10
43520;DHT22;46848;51.980;5.918;2024-01-07T09:07:10;1.90;83.40
43520;DHT22;46848;51.980;5.918;2024-01-07T09:09:35;1.90;83.30
43520;DHT22;46848;51.980;5.918;2024-01-07T09:12:01;2.00;83.20
43520;DHT22;46848;51.980;5.918;2024-01-07T09:14:26;2.00;82.90
43520;DHT22;46848;51.980;5.918;2024-01-07T09:16:52;1.90;82.90
43520;DHT22;46848;51.980;5.918;2024-01-07T09:19:18;2.00;83.00
43520;DHT22;46848;51.980;5.918;2024-01-07T09:21:44;2.00;83.00
43520;DHT22;46848;51.980;5.918;2024-01-07T09:24:10;2.00;82.90
43520;DHT22;46848;51.980;5.918;2024-01-07T09:26:36;2.00;82.20
43520;DHT22;46848;51.980;5.918;2024-01-07T09:29:01;1.90;82.60
43520;DHT22;46848;51.980;5.918;2024-01-07T09:31:27;1.90;82.60
43520;DHT22;46848;51.980;5.918;2024-01-07T09:33:53;2.00;82.90
43520;DHT22;46848;51.980;5.918;2024-01-07T09:36:18;2.00;82.50
43520;DHT22;46848;51.980;5.918;2024-01-07T09:38:44;2.00;82.50
43520;DHT22;46848;51.980;5.918;2024-01-07T09:41:09;2.00;82.70
43520;DHT22;46848;51.980;5.918;2024-01-07T09:43:35;2.00;82.70
43520;DHT22;46848;51.980;5.918;2024-01-07T09:46:02;2.00;82.40
43520;DHT22;46848;51.980;5.918;2024-01-07T09:48:28;2.00;82.40
43520;DHT22;46848;51.980;5.918;2024-01-07T09:50:55;2.00;82.80
43520;DHT22;46848;51.980;5.918;2024-01-07T09:53:25;2.00;82.70
43520;DHT22;46848;51.980;5.918;2024-01-07T09:55:59;2.00;82.30
43520;DHT22;46848;51.980;5.918;2024-01-07T09:58:26;2.10;82.30
43520;DHT22;46848;51.980;5.918;2024-01-07T10:00:53;2.10;82.00
43520;DHT22;46848;51.980;5.918;2024-01-07T10:03:19;2.10;81.90
43520;DHT22;46848;51.980;5.918;2024-01-07T10:05:45;2.00;81.00
43520;DHT22;46848;51.980;5.918;2024-01-07T10:08:10;2.00;81.40
43520;DHT22;46848;51.980;5.918;2024-01-07T10:10:36;2.00;81.30
43520;DHT22;46848;51.980;5.918;2024-01-07T10:13:02;2.00;81.40
43520;DHT22;46848;51.980;5.918;2024-01-07T10:15:28;2.10;81.30
43520;DHT22;46848;51.980;5.918;2024-01-07T10:18:03;2.10;81.10
43520;DHT22;46848;51.980;5.918;2024-01-07T10:20:29;2.10;80.50
43520;DHT22;46848;51.980;5.918;2024-01-07T10:22:54;2.10;80.50
43520;DHT22;46848;51.980;5.918;2024-01-07T10:25:20;2.10;80.40
43520;DHT22;46848;51.980;5.918;2024-01-07T10:27:45;2.10;80.40
43520;DHT22;46848;51.980;5.918;2024-01-07T10:30:12;2.20;80.20
43520;DHT22;46848;51.980;5.918;2024-01-07T10:32:37;2.30;79.40
43520;DHT22;46848;51.980;5.918;2024-01-07T10:35:04;2.30;79.50
43520;DHT22;46848;51.980;5.918;2024-01-07T10:37:32;2.30;79.50
43520;DHT22;46848;51.980;5.918;2024-01-07T10:39:59;2.30;79.40
43520;DHT22;46848;51.980;5.918;2024-01-07T10:42:33;2.40;78.80
43520;DHT22;46848;51.980;5.918;2024-01-07T10:45:02;2.40;78.40
43520;DHT22;46848;51.980;5.918;2024-01-07T10:47:30;2.50;78.20
43520;DHT22;46848;51.980;5.918;2024-01-07T10:49:59;2.50;78.20
43520;DHT22;46848;51.980;5.918;2024-01-07T10:52:27;2.60;77.30
43520;DHT22;46848;51.980;5.918;2024-01-07T10:54:56;2.60;76.90
43520;DHT22;46848;51.980;5.918;2024-01-07T10:57:32;2.60;77.40
43520;DHT22;46848;51.980;5.918;2024-01-07T11:00:00;2.70;77.30
43520;DHT22;46848;51.980;5.918;2024-01-07T11:02:26;2.80;77.20
43520;DHT22;46848;51.980;5.918;2024-01-07T11:05:15;2.80;77.20
43520;DHT22;46848;51.980;5.918;2024-01-07T11:08:13;2.90;77.40
43520;DHT22;46848;51.980;5.918;2024-01-07T11:10:50;2.90;76.90
43520;DHT22;46848;51.980;5.918;2024-01-07T11:13:38;2.90;76.70
43520;DHT22;46848;51.980;5.918;2024-01-07T11:16:08;2.90;76.40
43520;DHT22;46848;51.980;5.918;2024-01-07T11:18:45;2.90;75.10
43520;DHT22;46848;51.980;5.918;2024-01-07T11:21:10;2.90;74.80
43520;DHT22;46848;51.980;5.918;2024-01-07T11:23:43;3.00;75.70
43520;DHT22;46848;51.980;5.918;2024-01-07T11:26:08;3.10;76.00
43520;DHT22;46848;51.980;5.918;2024-01-07T11:28:51;3.10;73.90
43520;DHT22;46848;51.980;5.918;2024-01-07T11:31:18;3.10;74.00
43520;DHT22;46848;51.980;5.918;2024-01-07T11:33:46;3.20;74.60
43520;DHT22;46848;51.980;5.918;2024-01-07T11:36:13;3.30;73.00
43520;DHT22;46848;51.980;5.918;2024-01-07T11:38:48;3.40;73.10
43520;DHT22;46848;51.980;5.918;2024-01-07T11:41:16;3.50;73.30
43520;DHT22;46848;51.980;5.918;2024-01-07T11:43:56;3.70;73.90
43520;DHT22;46848;51.980;5.918;2024-01-07T11:46:23;4.00;73.90
43520;DHT22;46848;51.980;5.918;2024-01-07T11:48:50;4.20;72.70
43520;DHT22;46848;51.980;5.918;2024-01-07T11:51:16;4.40;71.30
43520;DHT22;46848;51.980;5.918;2024-01-07T11:53:42;4.40;68.30
43520;DHT22;46848;51.980;5.918;2024-01-07T11:56:09;4.40;70.00
43520;DHT22;46848;51.980;5.918;2024-01-07T11:58:34;4.60;69.80
43520;DHT22;46848;51.980;5.918;2024-01-07T12:01:00;4.60;66.90
43520;DHT22;46848;51.980;5.918;2024-01-07T12:03:26;4.50;64.40
43520;DHT22;46848;51.980;5.918;2024-01-07T12:05:52;4.30;65.40
43520;DHT22;46848;51.980;5.918;2024-01-07T12:08:17;4.20;62.70
43520;DHT22;46848;51.980;5.918;2024-01-07T12:10:43;4.10;63.20
43520;DHT22;46848;51.980;5.918;2024-01-07T12:13:11;4.10;64.80
43520;DHT22;46848;51.980;5.918;2024-01-07T12:15:37;4.20;64.70
43520;DHT22;46848;51.980;5.918;2024-01-07T12:18:04;4.10;63.40
43520;DHT22;46848;51.980;5.918;2024-01-07T12:20:30;4.20;64.70
43520;DHT22;46848;51.980;5.918;2024-01-07T12:23:08;4.30;65.20
43520;DHT22;46848;51.980;5.918;2024-01-07T12:25:35;4.40;65.60
43520;DHT22;46848;51.980;5.918;2024-01-07T12:28:01;4.50;64.50
43520;DHT22;46848;51.980;5.918;2024-01-07T12:30:27;4.60;65.30
43520;DHT22;46848;51.980;5.918;2024-01-07T12:32:53;4.70;65.10
43520;DHT22;46848;51.980;5.918;2024-01-07T12:35:19;4.80;63.80
43520;DHT22;46848;51.980;5.918;2024-01-07T12:37:48;4.80;64.80
43520;DHT22;46848;51.980;5.918;2024-01-07T12:40:14;4.70;62.70
43520;DHT22;46848;51.980;5.918;2024-01-07T12:42:40;4.70;63.40
43520;DHT22;46848;51.980;5.918;2024-01-07T12:45:11;4.60;63.10
43520;DHT22;46848;51.980;5.918;2024-01-07T12:47:38;4.50;63.00
43520;DHT22;46848;51.980;5.918;2024-01-07T12:50:04;4.30;63.70
43520;DHT22;46848;51.980;5.918;2024-01-07T12:52:30;4.00;63.30
43520;DHT22;46848;51.980;5.918;2024-01-07T12:54:55;3.80;63.80
43520;DHT22;46848;51.980;5.918;2024-01-07T12:57:22;3.70;64.90
43520;DHT22;46848;51.980;5.918;2024-01-07T12:59:48;3.70;65.10
43520;DHT22;46848;51.980;5.918;2024-01-07T13:02:14;3.60;64.40
43520;DHT22;46848;51.980;5.918;2024-01-07T13:04:40;3.50;65.10
43520;DHT22;46848;51.980;5.918;2024-01-07T13:07:05;3.50;65.60
43520;DHT22;46848;51.980;5.918;2024-01-07T13:09:31;3.60;65.20
43520;DHT22;46848;51.980;5.918;2024-01-07T13:11:57;3.50;65.40
43520;DHT22;46848;51.980;5.918;2024-01-07T13:14:23;3.50;66.00
43520;DHT22;46848;51.980;5.918;2024-01-07T13:16:49;3.40;66.50
43520;DHT22;46848;51.980;5.918;2024-01-07T13:19:14;3.40;66.30
43520;DHT22;46848;51.980;5.918;2024-01-07T13:21:40;3.30;65.10
43520;DHT22;46848;51.980;5.918;2024-01-07T13:24:05;3.30;64.70
43520;DHT22;46848;51.980;5.918;2024-01-07T13:26:31;3.10;65.50
43520;DHT22;46848;51.980;5.918;2024-01-07T13:28:57;3.10;65.50
43520;DHT22;46848;51.980;5.918;2024-01-07T13:31:22;3.10;66.00
43520;DHT22;46848;51.980;5.918;2024-01-07T13:33:49;3.10;65.90
43520;DHT22;46848;51.980;5.918;2024-01-07T13:36:14;3.20;65.80
43520;DHT22;46848;51.980;5.918;2024-01-07T13:38:40;3.30;66.00
43520;DHT22;46848;51.980;5.918;2024-01-07T13:41:08;3.40;65.10
43520;DHT22;46848;51.980;5.918;2024-01-07T13:43:33;3.60;65.30
43520;DHT22;46848;51.980;5.918;2024-01-07T13:45:59;3.70;65.30
43520;DHT22;46848;51.980;5.918;2024-01-07T13:48:25;3.70;63.70
43520;DHT22;46848;51.980;5.918;2024-01-07T13:50:51;3.70;63.30
43520;DHT22;46848;51.980;5.918;2024-01-07T13:53:19;3.60;63.80
43520;DHT22;46848;51.980;5.918;2024-01-07T13:55:44;3.40;63.80
43520;DHT22;46848;51.980;5.918;2024-01-07T13:58:12;3.20;64.70
43520;DHT22;46848;51.980;5.918;2024-01-07T14:00:38;3.00;65.50
43520;DHT22;46848;51.980;5.918;2024-01-07T14:03:04;3.00;66.00
43520;DHT22;46848;51.980;5.918;2024-01-07T14:05:29;3.00;66.30
43520;DHT22;46848;51.980;5.918;2024-01-07T14:07:55;3.10;66.50
43520;DHT22;46848;51.980;5.918;2024-01-07T14:10:21;3.00;65.50
43520;DHT22;46848;51.980;5.918;2024-01-07T14:12:46;3.00;65.80
43520;DHT22;46848;51.980;5.918;2024-01-07T14:15:13;2.90;65.70
43520;DHT22;46848;51.980;5.918;2024-01-07T14:17:38;2.90;65.90
43520;DHT22;46848;51.980;5.918;2024-01-07T14:20:06;2.80;66.30
43520;DHT22;46848;51.980;5.918;2024-01-07T14:22:31;2.70;66.70
43520;DHT22;46848;51.980;5.918;2024-01-07T14:24:57;2.70;66.30
43520;DHT22;46848;51.980;5.918;2024-01-07T14:27:22;2.60;66.20
43520;DHT22;46848;51.980;5.918;2024-01-07T14:29:48;2.60;67.00
43520;DHT22;46848;51.980;5.918;2024-01-07T14:32:13;2.50;66.40
43520;DHT22;46848;51.980;5.918;2024-01-07T14:34:40;2.50;66.80
43520;DHT22;46848;51.980;5.918;2024-01-07T14:37:10;2.50;67.60
43520;DHT22;46848;51.980;5.918;2024-01-07T14:39:36;2.50;67.80
43520;DHT22;46848;51.980;5.918;2024-01-07T14:42:02;2.50;67.80
43520;DHT22;46848;51.980;5.918;2024-01-07T14:44:28;2.50;68.10
43520;DHT22;46848;51.980;5.918;2024-01-07T14:46:54;2.60;68.20
43520;DHT22;46848;51.980;5.918;2024-01-07T14:49:19;2.70;67.90
43520;DHT22;46848;51.980;5.918;2024-01-07T14:51:45;2.70;67.20
43520;DHT22;46848;51.980;5.918;2024-01-07T14:54:12;2.70;67.30
43520;DHT22;46848;51.980;5.918;2024-01-07T14:56:38;2.70;67.30
43520;DHT22;46848;51.980;5.918;2024-01-07T14:59:04;2.60;67.00
43520;DHT22;46848;51.980;5.918;2024-01-07T15:01:29;2.60;67.90
43520;DHT22;46848;51.980;5.918;2024-01-07T15:03:55;2.70;67.60
43520;DHT22;46848;51.980;5.918;2024-01-07T15:06:21;2.70;68.20
43520;DHT22;46848;51.980;5.918;2024-01-07T15:08:46;2.80;68.50
43520;DHT22;46848;51.980;5.918;2024-01-07T15:11:14;2.80;67.80
43520;DHT22;46848;51.980;5.918;2024-01-07T15:13:40;2.80;67.80
43520;DHT22;46848;51.980;5.918;2024-01-07T15:16:07;2.70;68.10
43520;DHT22;46848;51.980;5.918;2024-01-07T15:18:32;2.70;68.40
43520;DHT22;46848;51.980;5.918;2024-01-07T15:20:58;2.70;68.60
43520;DHT22;46848;51.980;5.918;2024-01-07T15:23:24;2.70;68.70
43520;DHT22;46848;51.980;5.918;2024-01-07T15:25:49;2.70;69.10
43520;DHT22;46848;51.980;5.918;2024-01-07T15:28:15;2.70;68.80
43520;DHT22;46848;51.980;5.918;2024-01-07T15:30:40;2.60;69.00
43520;DHT22;46848;51.980;5.918;2024-01-07T15:33:06;2.60;69.30
43520;DHT22;46848;51.980;5.918;2024-01-07T15:35:31;2.60;69.20
43520;DHT22;46848;51.980;5.918;2024-01-07T15:37:57;2.60;69.10
43520;DHT22;46848;51.980;5.918;2024-01-07T15:40:23;2.60;69.60